This site, now in its 15th season, is a labour of love and fun from one of Ottawa's most avid time trialists and number crunchers. It adheres to and is permitted by the laws of Canada, promotes the objectives of every bicycle club whose results are shown, and is donated free of charge by myself for your enjoyment and usage. If you would like results from series you ride in to be shown here, give me (celia@drmath.ca) a shout!


Index Page
ATT OTT WTT AATT CFCTT VVVTT
Help resultformat:
Case-sensitive

OBC Open TT Series - 2010-Jun-03 - 15km (Rockliffe Pkwy) (EvtFactor = 0.9413)

Weather (18:00): Dry on course with light Rainshower near by. Temp.: 17C, Humidity: 87%, Dew Point: 15C, Wind: W 4km/h, Pressure: 100.7kPa, Visibility: 24km.
Weather (19:00): Light Rainshower Near by. Temp.: 17C, Humidity: 90%, Dew Point: 15C, Wind: W 5km/h, Pressure: 100.7kPa, Visibility: 24km.
Weather (20:00): Cloudy. Temp.: 17C, Humidity: 91%, Dew Point: 16C, Wind: W 4km/h, Pressure: 100.7kPa, Visibility: 24km.

Send photos with description (when/where/what) of yourself on or off of bike to celia@drmath.ca

Rain in the region may have scared away 30 or so riders, but it was dry on the course and the air pressure and wind speed were low enough to allow 39 to improve upon their previous 2010 OTT best and 21 to exceed their previous 15km database best. Most of the 7 people who managed to do 10+% database improvements were new or infrequent riders, with Kevin Nelson (who has ridden most years since 1998) being the most noteworthy exception. Junior rider Brian Trafford increased his best 15km speed by more than 1km/h to 42.32km/h and here are all the databased male junior 15km times that are at least 40km/h. Nina Nesdoly has improved considerably since her first time trial last yeara and right now has the fastest databased 15km Junior female time other than Denise Ramsden! Congratulations also to Jon Gee for breaking into the sub-20 minute range for the first time!

These results were first posted on the OBC site circa 11:30 on 2010-Jun-04 and are available here for your added pleasure and analysis.

(Note that I'd gladly type in the results each time, getting the results up within a few of hours of the event, as I did for the WTT series for the decade beginning in 1998, and for the OTT series from 1999-2002 and again in 2006. Regardless, I will continue to donate this statistical time trial result service to you, even though doing so has, surprisingly, resulted in my EXPULSION from the OBC ! I guess I must at least thank the OBC executive for taking on the grunt work and leaving me to do just the more interesting side of my result service, but I do want to make it absolutely clear that I would gladly help the OBC Board input the results, lest complaints about me just lazily sucking in the results surface! The choice is theirs. If they want the help, I'm here and will do it - even if I remain expelled! Such is my level of dedication to public service and disinterest in private politics.)

 
 

BESTS?
 
1 Fillion, Aaron  OBC/RWR 18:34 48.474 1/69 VAM 1/11 0.9919
2 MacDonald, Warren  OBC 18:52 47.703 2/69 VAM 2/11 1.0160
3 Amos, Ron  OBC/RWR 19:23 46.432 3/69 VBM 1/9 1.0313
4 Gee, Jon OBC 19:48 45.455 4/69 VBM 2/9 1.0566
5 Adamson, Shawn --- 19:52 45.302 5/69 SEM 1/5  
6 Parniak, Robert  --- 20:09 44.665 6/69 VAM 3/11 1.0000
Roth, Casey  RWR 20:09 44.665 6/69 SEM 2/5 1.0050
8 Datars, Paul  OBC/RWR 20:11 44.591 8/69 VCM 1/17 0.9877
Hamilton, Peter OBC 20:11 44.591 8/69 VBM 3/9 1.0709
10 Sudac, Rick  OBC/RWR 20:17 44.371 10/69 VDM 1/4 1.0099
11 Ferguson, James OBC 20:20 44.262 11/69 VCM 2/17 1.0653
12 Katz, Joel  OBC/RWR 20:42 43.478 12/69 VCM 3/17 1.0024
13 Lefebvre, Jean-Pierre RDO 20:56 42.994 13/69 VAM 4/11  
14 Clarke, Shawn --- 21:01 42.823 14/69 SEM 3/5  
15 Gerrard, David  OBC 21:09 42.553 15/69 VBM 4/9 1.0480
16 Trafford, Brian OBC 21:16 42.320 16/69 JUM 1/3 1.1046
17 Matte, Sophie  SRC 21:22 42.122 17/69 VAF 1/7 1.0212
18 Orange, Kiernan RWR 21:27 41.958 18/69 JUM 2/3 1.0070
19 Budgell, Glen  OBC 21:29 41.893 19/69 VCM 4/17 0.9542
20 Spooner, Tricia  SRC 21:34 41.731 20/69 VBF 1/4 1.0210
21 Mullington, Chris WQW 21:36 41.667 21/69 VCM 5/17 0.9817
22 Christie, Greg  OBC/RWR 21:37 41.635 22/69 VCM 6/17 0.9300
McKay, Allison  OBC/RDO 21:37 41.635 22/69 VBF 2/4 0.9748
24 Michel, Alexandre  WQW 21:40 41.538 24/69 VAM 5/11 0.9500
25 Aspenlieder, Iain --- 21:43 41.443 25/69 VAM 6/11 1.1497
26 Farish, Neil  OBC/RWR 21:44 41.411 26/69 VCM 7/17 1.0000
27 Kruger, Andrew  CYC 21:56 41.033 27/69 VAM 7/11 1.0509
Nelson, Cynthia  RWR 21:56 41.033 27/69 VAF 2/7 0.9073
29 Corner, Doug  OBC 21:59 40.940 29/69 VCM 8/17 0.9729
30 MacGregor, Moriah --- 22:24 40.179 30/69 VAF 3/7 0.9823
31 Nelson, Kevin OBC 22:30 40.000 31/69 VBM 5/9 1.1320
32 Moerman, Bram  OBC 22:38 39.764 32/69 VDM 2/4 1.0654
33 Boulanger, Gaetan  OBC 22:42 39.648 33/69 VDM 3/4 1.1550
34 Schuck, Peter  OBC 22:45 39.560 34/69 VCM 9/17 1.0154
35 McKay, Andrea  OBC 22:48 39.474 35/69 VBF 3/4 1.0177
36 Lampi, Allison OBC 22:54 39.301 36/69 VAF 4/7 0.9847
37 Dorego, Jean-Louis OBC 22:56 39.244 37/69 VCM 10/17 0.9697
38 Burge, Larry  OBC 22:59 39.159 38/69 VBM 6/9 1.0850
39 De Haitre, Vincent OBC 23:00 39.130 39/69 CAM 1/3 0.9978
40 Blais, Bob OBC 23:07 38.933 40/69 VCM 11/17 0.9594
Couturier-Lamy, Felix OBC 23:07 38.933 40/69 CAM 2/3 1.0959
42 Coudé, Martin EUR 23:17 38.654 42/69 SEM 4/5 1.0281
43 Maley, Shane OBC 23:23 38.489 43/69 SEM 5/5 1.0434
44 Freed, Adam --- 23:32 38.244 44/69 VAM 8/11 1.0988
45 Nesdoly, Nina  OBC 23:41 38.001 45/69 JUF 1/1 1.0735
46 McClure, Robert OBC 23:52 37.709 46/69 VBM 7/9 0.9709
47 Bergeron, Philippe  OBC 23:53 37.683 47/69 JUM 3/3 1.1083
Deavy, Carol  OBC 23:53 37.683 47/69 VBF 4/4 0.9896
49 Reissner, Leslie OBC 23:54 37.657 49/69 VCM 12/17 0.9049
50 Eikenberry, Adam EUR 24:00 37.500 50/69 VAM 9/11  
51 Provencher, Mélanie RDO 24:03 37.422 51/69 VAF 5/7 1.2879
52 Simard, Martin OBC 24:11 37.216 52/69 VCM 13/17 1.0612
53 Momtahan, Parham  OBC 24:30 36.735 53/69 VCM 14/17 0.9109
54 Dionne, Suzanne  OBC 24:31 36.710 54/69 VCF 1/3 1.0582
55 Beckett, Doug OBC 24:40 36.486 55/69 VBM 8/9  
56 Janusauskas, Vytas  OBC 24:41 36.462 56/69 VCM 15/17 1.0204
57 Austen, Ian  OBC 24:47 36.315 57/69 VCM 16/17 1.0041
58 McInnis, Celia  ABC/CYF 24:48 36.290 58/69 VCF 2/3 1.0101
Samborsky, Mark OBC 24:48 36.290 58/69 VBM 9/9 0.9101
60 Desjardins, Marcel OBC 24:55 36.120 60/69 VDM 4/4 0.9682
61 Ferlatte, Kari  FC 24:56 36.096 61/69 VAF 6/7 1.0994
62 Bonhomme, Ariane OBC 25:13 35.691 62/69 CAF 1/2 1.0794
63 Rees, Stephanie  OBC 25:29 35.317 63/69 VAF 7/7 1.0297
64 Dal-Cin, Mauro EUR 26:07 34.461 64/69 VCM 17/17 1.0019
65 Boudreau, Lucie  OBC 27:18 32.967 65/69 VCF 3/3 0.9909
66 Portelance, Marianne --- 27:28 32.767 66/69 CAF 2/2 1.1172
67 Bourque, Timothy OBC 27:44 32.452 67/69 VAM 10/11 1.1257
68 Monast-Dore, Maxime OBC DNF   68/69 CAM 3/3  
van den Ham, Douglas  OBC DNF   68/69 VAM 11/11  
 
Average Speed of all of the above 67 finishes (1005km in 25:21:54):39.622
>>>Average of the Average Speeds for these 67 finishes39.932<<<
 

The number of data records shown above is 69
The server processing of your query took: 1 wallclock secs ( 0.16 usr + 0.00 sys = 0.16 CPU)

Thanks to our Helpers: Avery Burdett, Neil Farish, Gunter Hauschildt, Giorgio Imbrogno, Marc Lapointe, Dianne Marleau, Alex McKnight.

     


Apr 2 (Good Friday)
May 4 (10km) May 6 May 11 (10km) May 13 May 18 May 18 (10km) May 20 May 25 May 25 (10km) May 27 May 30 (40km) May 31 (10km)
Jun 1 Jun 1
  Jun 3  
Jun 8 Jun 8 Jun 10 Jun 14 (10km) Jun 15 Jun 15 Jun 17 Jun 22 (rained out) Jun 22 Jun 24 Jun 28 (10km) Jun 29 Jun 29
Jul 4 (40km) Jul 6 Jul 6 Jul 8 Jul 12 Jul 13 Jul 13 Jul 15 Jul 20 Jul 20 Jul 22 Jul 26 Jul 27 Jul 27 Jul 29
Aug 3 ((cancelled)) Aug 3 Aug 5 Aug 8 (40km) Aug 10 Aug 10 Aug 12 Aug 15 (40km) Aug 17 Aug 17 Aug 19 Aug 23 Aug 24 Aug 24 Aug 26 Aug 31 Aug 31 (Invitational)
Sep 2 Sep 7 Sep 9 Sep 12 (40km) Sep 14 Sep 19 (40km) Sep 21 Sep 28

OTT Rankings
Best       Best by category
WTT Rankings for All Participants
4 Best Speeds (≥3 15km, ≤1 10km)     4 Best Speeds (≥3 15km, ≤1 10km) by category
OTT Best Three 15km Rankings
Overall     by category     age-Hcap Female   age-Hcap Male
[OWA]TT BAR Ranking
Overall     by category     Rider "Consistency-Graph"
ABC BAR Ranking
Overall     by category     Rider "Consistency-Graph"
Other years
TT Calculator All TT People All TT events
ABC Home VVV Home
CKAP GOLD MEDAL
Other Links

Note: OTT data from 2003 through 2006-Apr-14 and 2007-Apr-06-? and WTT from 2008-? is taken from the official OBC site.

Please send your comments and suggestions to: Celia McInnis
Copyright © 1998-2011 Celia McInnis. All rights reserved. Links are welcomed.